createdAt,value
2023-03-10T00:02:00.525Z,15.45
2023-03-10T00:04:29.680Z,15.42
2023-03-10T00:06:59.346Z,15.37
2023-03-10T00:09:28.661Z,15.34
2023-03-10T00:11:58.159Z,15.30
2023-03-10T00:14:27.305Z,15.27
2023-03-10T00:16:56.494Z,15.26
2023-03-10T00:19:27.176Z,15.32
2023-03-10T00:21:56.548Z,15.38
2023-03-10T00:24:25.920Z,15.40
2023-03-10T00:26:55.628Z,15.43
2023-03-10T00:29:25.426Z,15.45
2023-03-10T00:31:55.535Z,15.47
2023-03-10T00:34:24.933Z,15.42
2023-03-10T00:36:54.829Z,15.39
2023-03-10T00:39:24.615Z,15.36
2023-03-10T00:41:54.009Z,15.32
2023-03-10T00:44:23.698Z,15.31
2023-03-10T00:46:53.089Z,15.24
2023-03-10T00:49:22.998Z,15.16
2023-03-10T00:51:52.516Z,15.05
2023-03-10T00:54:21.735Z,15.01
2023-03-10T00:56:51.507Z,15.01
2023-03-10T00:59:20.759Z,14.97
2023-03-10T01:01:50.199Z,14.91
2023-03-10T01:04:20.785Z,14.89
2023-03-10T01:06:50.414Z,14.87
2023-03-10T01:09:20.202Z,14.87
2023-03-10T01:11:49.817Z,14.82
2023-03-10T01:14:19.394Z,14.76
2023-03-10T01:16:48.641Z,14.74
2023-03-10T01:19:19.014Z,14.78
2023-03-10T01:21:48.566Z,14.76
2023-03-10T01:24:18.343Z,14.74
2023-03-10T01:26:48.075Z,14.69
2023-03-10T01:29:17.190Z,14.67
2023-03-10T01:31:46.746Z,14.72
2023-03-10T01:34:16.200Z,14.74
2023-03-10T01:36:46.089Z,14.74
2023-03-10T01:39:15.569Z,14.72
2023-03-10T01:41:44.929Z,14.78
2023-03-10T01:44:18.253Z,14.85
2023-03-10T01:46:56.522Z,14.90
2023-03-10T01:49:40.530Z,14.92
2023-03-10T01:52:22.056Z,14.96
2023-03-10T01:55:31.556Z,15.06
2023-03-10T01:58:04.023Z,15.07
2023-03-10T02:00:34.381Z,15.06
2023-03-10T02:03:28.151Z,15.04
2023-03-10T02:06:10.354Z,14.98
2023-03-10T02:08:46.842Z,14.99
2023-03-10T02:11:19.284Z,14.97
2023-03-10T02:13:49.821Z,14.92
2023-03-10T02:16:21.517Z,14.90
2023-03-10T02:18:53.032Z,14.85
2023-03-10T02:21:33.194Z,14.83
2023-03-10T02:24:27.779Z,14.68
2023-03-10T02:27:05.130Z,14.45
2023-03-10T02:29:58.062Z,14.33
2023-03-10T02:32:38.461Z,14.24
2023-03-10T02:35:11.991Z,14.23
2023-03-10T02:37:45.216Z,14.22
2023-03-10T02:40:39.321Z,14.21
2023-03-10T02:43:20.248Z,14.12
2023-03-10T02:45:56.025Z,14.11
2023-03-10T02:49:00.811Z,14.10
2023-03-10T02:51:37.277Z,14.06
2023-03-10T02:54:08.956Z,14.07
2023-03-10T02:56:45.089Z,14.07
2023-03-10T02:59:17.866Z,14.00
2023-03-10T03:01:49.972Z,14.01
2023-03-10T03:04:24.044Z,13.99
2023-03-10T03:06:57.725Z,13.99
2023-03-10T03:09:28.607Z,14.07
2023-03-10T03:12:00.821Z,14.08
2023-03-10T03:14:35.041Z,14.18
2023-03-10T03:17:05.731Z,14.26
2023-03-10T03:19:39.038Z,14.28
2023-03-10T03:22:09.020Z,14.29
2023-03-10T03:24:39.015Z,14.27
2023-03-10T03:27:09.830Z,14.23
2023-03-10T03:29:42.041Z,14.18
2023-03-10T03:32:13.624Z,14.19
2023-03-10T03:34:46.119Z,14.20
2023-03-10T03:37:16.261Z,14.17
2023-03-10T03:39:46.653Z,14.20
2023-03-10T03:42:17.452Z,14.27
2023-03-10T03:44:51.468Z,14.34
2023-03-10T03:47:22.798Z,14.40
2023-03-10T03:49:53.937Z,14.46
2023-03-10T03:52:23.834Z,14.44
2023-03-10T03:54:53.194Z,14.42
2023-03-10T03:57:28.412Z,14.46
2023-03-10T03:59:59.833Z,14.48
2023-03-10T04:02:32.280Z,14.48
2023-03-10T04:05:03.442Z,14.53
2023-03-10T04:07:36.014Z,14.51
2023-03-10T04:10:09.943Z,14.52
2023-03-10T04:12:44.832Z,14.51
2023-03-10T04:15:18.391Z,14.51
2023-03-10T04:17:49.239Z,14.57
2023-03-10T04:20:19.903Z,14.67
2023-03-10T04:22:50.559Z,14.72
2023-03-10T04:25:24.196Z,14.70
2023-03-10T04:27:53.670Z,14.66
2023-03-10T04:30:29.774Z,14.61
2023-03-10T04:33:03.929Z,14.54
2023-03-10T04:35:37.199Z,14.48
2023-03-10T04:38:09.806Z,14.35
2023-03-10T04:40:42.186Z,14.29
2023-03-10T04:43:15.148Z,14.24
2023-03-10T04:45:47.305Z,14.23
2023-03-10T04:48:17.512Z,14.22
2023-03-10T04:50:49.102Z,14.16
2023-03-10T04:53:18.962Z,14.10
2023-03-10T04:55:52.274Z,14.07
2023-03-10T04:58:23.714Z,14.10
2023-03-10T05:01:03.140Z,14.14
2023-03-10T05:03:33.769Z,14.14
2023-03-10T05:06:09.283Z,14.07
2023-03-10T05:08:41.149Z,14.05
2023-03-10T05:11:12.852Z,13.99
2023-03-10T05:13:43.497Z,13.94
2023-03-10T05:16:22.606Z,13.90
2023-03-10T05:18:54.060Z,13.91
2023-03-10T05:21:26.603Z,13.93
2023-03-10T05:24:00.572Z,13.93
2023-03-10T05:26:34.575Z,13.91
2023-03-10T05:29:06.419Z,13.95
2023-03-10T05:31:41.152Z,14.00
2023-03-10T05:34:12.101Z,14.07
2023-03-10T05:36:44.211Z,14.16
2023-03-10T05:39:14.570Z,14.20
2023-03-10T05:41:45.996Z,14.21
2023-03-10T05:44:17.413Z,14.22
2023-03-10T05:46:50.504Z,14.22
2023-03-10T05:49:21.750Z,14.27
2023-03-10T05:51:54.949Z,14.23
2023-03-10T05:54:27.448Z,14.22
2023-03-10T05:56:58.426Z,14.18
2023-03-10T05:59:30.573Z,14.19
2023-03-10T06:02:03.551Z,14.22
2023-03-10T06:04:35.833Z,14.27
2023-03-10T06:07:08.274Z,14.21
2023-03-10T06:09:41.167Z,14.19
2023-03-10T06:12:17.039Z,14.23
2023-03-10T06:14:46.903Z,14.26
2023-03-10T06:17:21.414Z,14.28
2023-03-10T06:19:54.611Z,14.26
2023-03-10T06:22:31.181Z,14.30
2023-03-10T06:25:05.320Z,14.38
2023-03-10T06:27:35.616Z,14.50
2023-03-10T06:30:07.820Z,14.59
2023-03-10T06:32:38.125Z,14.67
2023-03-10T06:35:08.446Z,14.80
2023-03-10T06:37:41.037Z,14.96
2023-03-10T06:40:14.338Z,15.16
2023-03-10T06:42:47.491Z,15.23
2023-03-10T06:45:19.003Z,15.36
2023-03-10T06:47:50.873Z,15.46
2023-03-10T06:50:21.973Z,15.48
2023-03-10T06:52:55.123Z,15.38
2023-03-10T06:55:29.560Z,15.28
2023-03-10T06:58:03.734Z,15.20
2023-03-10T07:00:37.365Z,15.18
2023-03-10T07:03:13.185Z,15.15
2023-03-10T07:05:46.319Z,15.07
2023-03-10T07:08:19.645Z,15.07
2023-03-10T07:10:51.824Z,15.06
2023-03-10T07:13:24.794Z,15.10
2023-03-10T07:16:00.172Z,15.15
2023-03-10T07:18:34.675Z,15.18
2023-03-10T07:21:27.581Z,15.21
2023-03-10T07:24:02.075Z,15.25
2023-03-10T07:26:33.782Z,15.27
2023-03-10T07:29:05.572Z,15.25
2023-03-10T07:31:38.111Z,15.28
2023-03-10T07:34:07.873Z,15.33
2023-03-10T07:36:40.057Z,15.32
2023-03-10T07:39:13.758Z,15.28
2023-03-10T07:41:45.909Z,15.27
2023-03-10T07:44:17.879Z,15.30
2023-03-10T07:46:49.112Z,15.33
2023-03-10T07:49:22.057Z,15.29
2023-03-10T07:51:56.069Z,15.29
2023-03-10T07:54:27.951Z,15.25
2023-03-10T07:56:58.712Z,15.25
2023-03-10T07:59:30.189Z,15.22
2023-03-10T08:02:03.081Z,15.21
2023-03-10T08:04:35.183Z,15.18
2023-03-10T08:07:10.197Z,15.21
2023-03-10T08:09:44.641Z,15.24
2023-03-10T08:12:15.298Z,15.23
2023-03-10T08:14:46.024Z,15.20
2023-03-10T08:17:18.468Z,15.18
2023-03-10T08:19:50.592Z,15.21
2023-03-10T08:22:22.613Z,15.25
2023-03-10T08:24:58.374Z,15.30
2023-03-10T08:27:30.981Z,15.37
2023-03-10T08:30:01.787Z,15.44
2023-03-10T08:32:36.412Z,15.64
2023-03-10T08:35:07.767Z,15.84
2023-03-10T08:37:39.638Z,16.06
2023-03-10T08:40:18.620Z,16.27
2023-03-10T08:42:49.487Z,16.36
2023-03-10T08:45:21.767Z,16.70
2023-03-10T08:47:54.754Z,16.73
2023-03-10T08:50:25.503Z,16.57
2023-03-10T08:53:00.454Z,16.50
2023-03-10T08:55:33.258Z,16.29
2023-03-10T08:58:06.958Z,16.09
2023-03-10T09:00:39.050Z,15.90
2023-03-10T09:03:10.555Z,15.79
2023-03-10T09:05:43.751Z,15.74
2023-03-10T09:08:15.838Z,15.67
2023-03-10T09:10:48.933Z,15.83
2023-03-10T09:13:24.123Z,16.03
2023-03-10T09:15:56.647Z,16.50
2023-03-10T09:18:29.131Z,17.83
2023-03-10T09:21:02.845Z,18.20
2023-03-10T09:23:35.456Z,18.58
2023-03-10T09:26:11.655Z,18.39
2023-03-10T09:28:47.040Z,18.03
2023-03-10T09:31:33.017Z,17.76
2023-03-10T09:34:09.476Z,17.65
2023-03-10T09:36:42.687Z,17.84
2023-03-10T09:39:22.835Z,18.12
2023-03-10T09:42:37.470Z,18.04
2023-03-10T09:45:41.652Z,17.54
2023-03-10T09:48:26.482Z,17.17
2023-03-10T09:51:08.157Z,16.95
2023-03-10T09:53:52.212Z,17.04
2023-03-10T09:56:38.589Z,17.75
2023-03-10T09:59:17.344Z,18.94
2023-03-10T10:01:52.277Z,20.80
2023-03-10T10:04:40.768Z,20.99
2023-03-10T10:07:26.083Z,22.02
2023-03-10T10:10:16.098Z,22.66
2023-03-10T10:12:48.660Z,24.33
2023-03-10T10:15:25.333Z,25.92
2023-03-10T10:18:17.979Z,27.46
2023-03-10T10:21:01.117Z,28.80
2023-03-10T10:23:44.628Z,27.93
2023-03-10T10:26:25.327Z,26.88
2023-03-10T10:29:02.092Z,27.16
2023-03-10T10:31:36.037Z,25.84
2023-03-10T10:34:20.000Z,25.03
2023-03-10T10:36:56.159Z,24.00
2023-03-10T10:39:34.143Z,23.03
2023-03-10T10:42:26.610Z,21.93
2023-03-10T10:45:03.786Z,21.14
2023-03-10T10:47:51.796Z,20.92
2023-03-10T10:50:32.596Z,20.53
2023-03-10T10:53:22.999Z,20.53
2023-03-10T10:56:11.601Z,21.15
2023-03-10T10:58:54.373Z,21.08
2023-03-10T11:01:26.755Z,20.83
2023-03-10T11:04:15.364Z,20.38
2023-03-10T11:06:54.415Z,19.57
2023-03-10T11:09:28.512Z,18.59
2023-03-10T11:12:21.100Z,17.67
2023-03-10T11:14:54.723Z,16.91
2023-03-10T11:17:41.128Z,16.49
2023-03-10T11:20:28.298Z,15.84
2023-03-10T11:23:22.810Z,15.43
2023-03-10T11:26:38.629Z,15.11
2023-03-10T11:29:38.522Z,14.92
2023-03-10T11:32:29.421Z,15.00
2023-03-10T11:35:10.081Z,15.03
2023-03-10T11:38:25.228Z,15.09
2023-03-10T11:41:04.101Z,15.57
2023-03-10T11:43:37.845Z,16.50
2023-03-10T11:46:42.028Z,17.08
2023-03-10T11:49:21.505Z,17.44
2023-03-10T11:52:04.706Z,17.71
2023-03-10T11:54:51.155Z,18.04
2023-03-10T11:57:29.865Z,18.24
2023-03-10T12:00:10.044Z,18.23
2023-03-10T12:02:51.378Z,18.61
2023-03-10T12:05:28.567Z,20.41
2023-03-10T12:08:08.749Z,21.42
2023-03-10T12:10:43.323Z,23.10
2023-03-10T12:13:30.832Z,24.63
2023-03-10T12:16:04.942Z,25.36
2023-03-10T12:18:37.663Z,25.78
2023-03-10T12:21:33.172Z,27.47
2023-03-10T12:24:06.075Z,27.08
2023-03-10T12:26:39.937Z,25.44
2023-03-10T12:29:21.952Z,23.99
2023-03-10T12:31:58.608Z,23.06
2023-03-10T12:34:35.122Z,22.36
2023-03-10T12:37:14.104Z,21.69
2023-03-10T12:39:47.509Z,21.43
2023-03-10T12:42:35.570Z,21.54
2023-03-10T12:45:26.381Z,21.35
2023-03-10T12:48:21.092Z,21.65
2023-03-10T12:51:02.940Z,21.56
2023-03-10T12:53:58.308Z,21.08
2023-03-10T12:56:45.097Z,20.56
2023-03-10T12:59:27.152Z,20.04
2023-03-10T13:02:00.844Z,20.25
2023-03-10T13:04:34.195Z,20.83
2023-03-10T13:07:06.585Z,20.91
2023-03-10T13:09:45.993Z,22.09
2023-03-10T13:12:51.981Z,24.11
2023-03-10T13:15:31.834Z,25.75
2023-03-10T13:18:24.731Z,27.02
2023-03-10T13:20:58.756Z,27.79
2023-03-10T13:23:41.478Z,28.14
2023-03-10T13:26:19.698Z,28.16
2023-03-10T13:29:20.353Z,27.82
2023-03-10T13:31:57.088Z,27.89
2023-03-10T13:34:32.525Z,28.32
2023-03-10T13:37:11.545Z,28.02
2023-03-10T13:39:40.948Z,27.90
2023-03-10T13:42:44.202Z,28.35
2023-03-10T13:45:23.891Z,28.32
2023-03-10T13:47:56.939Z,27.12
2023-03-10T13:50:26.841Z,27.04
2023-03-10T13:53:00.403Z,26.97
2023-03-10T13:55:30.582Z,26.70
2023-03-10T13:58:00.243Z,26.49
2023-03-10T14:00:29.718Z,24.73
2023-03-10T14:02:59.996Z,24.44
2023-03-10T14:05:46.573Z,24.83
2023-03-10T14:08:24.019Z,25.33
2023-03-10T14:10:53.528Z,25.71
2023-03-10T14:13:44.843Z,25.56
2023-03-10T14:16:15.632Z,25.84
2023-03-10T14:18:46.316Z,25.62
2023-03-10T14:21:35.238Z,25.69
2023-03-10T14:24:08.827Z,25.35
2023-03-10T14:26:41.082Z,25.73
2023-03-10T14:29:18.353Z,26.07
2023-03-10T14:31:52.631Z,26.46
2023-03-10T14:34:22.552Z,26.36
2023-03-10T14:36:51.777Z,26.17
2023-03-10T14:39:23.603Z,26.45
2023-03-10T14:41:54.195Z,26.62
2023-03-10T14:44:24.200Z,26.67
2023-03-10T14:46:54.495Z,26.59
2023-03-10T14:49:27.383Z,26.08
2023-03-10T14:51:57.512Z,26.57
2023-03-10T14:54:27.490Z,26.91
2023-03-10T14:56:59.839Z,27.26
2023-03-10T14:59:29.706Z,27.39
2023-03-10T15:02:15.131Z,27.10
2023-03-10T15:04:45.134Z,27.21
2023-03-10T15:07:15.848Z,26.77
2023-03-10T15:09:49.546Z,25.91
2023-03-10T15:12:22.652Z,25.17
2023-03-10T15:14:56.119Z,24.82
2023-03-10T15:17:27.523Z,24.33
2023-03-10T15:19:57.772Z,24.58
2023-03-10T15:22:29.396Z,24.62
2023-03-10T15:24:59.788Z,24.84
2023-03-10T15:27:30.142Z,24.31
2023-03-10T15:30:03.160Z,24.02
2023-03-10T15:32:34.990Z,24.52
2023-03-10T15:35:07.154Z,24.65
2023-03-10T15:37:36.688Z,24.14
2023-03-10T15:40:11.180Z,24.41
2023-03-10T15:42:43.808Z,24.40
2023-03-10T15:45:15.603Z,24.11
2023-03-10T15:47:47.821Z,24.42
2023-03-10T15:50:22.821Z,23.97
2023-03-10T15:53:02.716Z,23.84
2023-03-10T15:55:33.476Z,24.14
2023-03-10T15:58:04.523Z,24.05
2023-03-10T16:00:36.351Z,24.10
2023-03-10T16:03:08.647Z,24.14
2023-03-10T16:05:39.721Z,24.19
2023-03-10T16:08:09.849Z,24.04
2023-03-10T16:10:46.141Z,24.00
2023-03-10T16:13:16.202Z,23.89
2023-03-10T16:15:50.001Z,23.97
2023-03-10T16:18:19.328Z,23.73
2023-03-10T16:20:59.852Z,23.45
2023-03-10T16:23:35.759Z,22.96
2023-03-10T16:26:07.793Z,22.31
2023-03-10T16:28:39.486Z,21.69
2023-03-10T16:31:10.507Z,21.20
2023-03-10T16:33:40.952Z,20.89
2023-03-10T16:36:17.610Z,20.63
2023-03-10T16:38:48.610Z,20.54
2023-03-10T16:41:18.456Z,20.49
2023-03-10T16:43:50.985Z,20.33
2023-03-10T16:46:27.054Z,20.15
2023-03-10T16:48:58.107Z,19.93
2023-03-10T16:51:38.622Z,19.68
2023-03-10T16:54:13.978Z,19.24
2023-03-10T16:56:47.069Z,18.84
2023-03-10T16:59:21.750Z,18.26
2023-03-10T17:01:52.576Z,18.07
2023-03-10T17:04:22.262Z,17.93
2023-03-10T17:06:53.055Z,17.80
2023-03-10T17:09:23.283Z,17.72
2023-03-10T17:11:55.433Z,17.55
2023-03-10T17:14:25.553Z,17.34
2023-03-10T17:16:56.939Z,17.14
2023-03-10T17:19:30.578Z,16.96
2023-03-10T17:22:00.053Z,16.73
2023-03-10T17:24:30.243Z,16.48
2023-03-10T17:27:01.920Z,16.32
2023-03-10T17:29:31.934Z,16.24
2023-03-10T17:32:01.538Z,16.14
2023-03-10T17:34:30.912Z,16.08
2023-03-10T17:37:00.764Z,16.02
2023-03-10T17:39:30.924Z,15.95
2023-03-10T17:42:01.299Z,15.80
2023-03-10T17:44:33.661Z,15.76
2023-03-10T17:47:04.399Z,15.72
2023-03-10T17:49:34.264Z,15.66
2023-03-10T17:52:05.063Z,15.61
2023-03-10T17:54:35.550Z,15.49
2023-03-10T17:57:05.283Z,15.44
2023-03-10T17:59:39.516Z,15.22
2023-03-10T18:02:12.854Z,15.18
2023-03-10T18:04:45.712Z,15.16
2023-03-10T18:07:15.339Z,15.22
2023-03-10T18:09:45.948Z,15.15
2023-03-10T18:12:17.510Z,15.12
2023-03-10T18:14:48.139Z,15.15
2023-03-10T18:17:18.766Z,15.10
2023-03-10T18:19:52.854Z,15.03
2023-03-10T18:22:23.939Z,14.95
2023-03-10T18:24:54.736Z,14.92
2023-03-10T18:27:24.845Z,14.87
2023-03-10T18:29:55.000Z,14.86
2023-03-10T18:32:26.115Z,14.81
2023-03-10T18:35:00.297Z,14.72
2023-03-10T18:37:33.288Z,14.68
2023-03-10T18:40:05.030Z,14.65
2023-03-10T18:42:34.926Z,14.60
2023-03-10T18:45:04.912Z,14.59
2023-03-10T18:47:35.571Z,14.56
2023-03-10T18:50:06.324Z,14.54
2023-03-10T18:52:36.655Z,14.53
2023-03-10T18:55:07.285Z,14.55
2023-03-10T18:57:38.011Z,14.55
2023-03-10T19:00:09.470Z,14.56
2023-03-10T19:02:39.662Z,14.58
2023-03-10T19:05:15.159Z,14.52
2023-03-10T19:07:45.230Z,14.46
2023-03-10T19:10:18.645Z,14.44
2023-03-10T19:12:50.199Z,14.42
2023-03-10T19:15:19.457Z,14.36
2023-03-10T19:17:49.227Z,14.31
2023-03-10T19:20:19.210Z,14.26
2023-03-10T19:22:53.475Z,14.25
2023-03-10T19:25:24.662Z,14.23
2023-03-10T19:27:54.600Z,14.20
2023-03-10T19:30:25.574Z,14.14
2023-03-10T19:32:58.736Z,14.12
2023-03-10T19:35:28.665Z,14.11
2023-03-10T19:37:58.659Z,14.06
2023-03-10T19:40:28.063Z,13.97
2023-03-10T19:42:59.437Z,13.91
2023-03-10T19:45:29.835Z,13.85
2023-03-10T19:47:59.448Z,14.01
2023-03-10T19:50:29.276Z,14.05
2023-03-10T19:52:59.966Z,13.98
2023-03-10T19:55:30.712Z,13.89
2023-03-10T19:58:01.453Z,13.87
2023-03-10T20:00:36.769Z,13.97
2023-03-10T20:03:07.718Z,14.07
2023-03-10T20:05:38.501Z,14.05
2023-03-10T20:08:09.570Z,14.07
2023-03-10T20:10:40.839Z,14.08
2023-03-10T20:13:11.199Z,14.11
2023-03-10T20:15:41.650Z,14.13
2023-03-10T20:18:14.342Z,14.18
2023-03-10T20:20:45.833Z,14.17
2023-03-10T20:23:17.441Z,14.14
2023-03-10T20:25:47.470Z,14.11
2023-03-10T20:28:20.857Z,14.14
2023-03-10T20:30:51.003Z,14.14
2023-03-10T20:33:21.673Z,14.13
2023-03-10T20:35:51.817Z,14.13
2023-03-10T20:38:24.026Z,14.08
2023-03-10T20:40:53.981Z,14.04
2023-03-10T20:43:24.180Z,13.98
2023-03-10T20:45:54.000Z,14.01
2023-03-10T20:48:24.080Z,13.96
2023-03-10T20:50:59.496Z,13.90
2023-03-10T20:53:36.973Z,13.82
2023-03-10T20:56:12.506Z,13.71
2023-03-10T20:58:43.962Z,13.61
2023-03-10T21:01:22.887Z,13.54
2023-03-10T21:03:57.438Z,13.44
2023-03-10T21:06:29.359Z,13.34
2023-03-10T21:09:02.449Z,13.34
2023-03-10T21:11:36.247Z,13.28
2023-03-10T21:14:06.987Z,13.19
2023-03-10T21:16:43.619Z,13.13
2023-03-10T21:19:17.398Z,13.08
2023-03-10T21:21:47.772Z,13.00
2023-03-10T21:24:17.575Z,12.96
2023-03-10T21:26:47.642Z,12.93
2023-03-10T21:29:17.765Z,12.85
2023-03-10T21:31:47.835Z,12.84
2023-03-10T21:34:17.284Z,12.86
2023-03-10T21:36:49.214Z,12.74
2023-03-10T21:39:20.542Z,12.59
2023-03-10T21:41:52.082Z,12.52
2023-03-10T21:44:34.581Z,12.45
2023-03-10T21:47:04.260Z,12.40
2023-03-10T21:49:33.595Z,12.39
2023-03-10T21:52:04.966Z,12.36
2023-03-10T21:54:36.248Z,12.33
2023-03-10T21:57:06.077Z,12.35
2023-03-10T21:59:38.158Z,12.34
2023-03-10T22:02:09.337Z,12.36
2023-03-10T22:04:38.829Z,12.33
2023-03-10T22:07:08.570Z,12.31
2023-03-10T22:09:39.240Z,12.26
2023-03-10T22:12:09.785Z,12.21
2023-03-10T22:14:42.127Z,12.19
2023-03-10T22:17:13.133Z,12.13
2023-03-10T22:19:44.797Z,12.10
2023-03-10T22:22:14.818Z,12.12
2023-03-10T22:24:45.420Z,12.13
2023-03-10T22:27:15.580Z,12.13
2023-03-10T22:29:47.612Z,12.14
2023-03-10T22:32:19.032Z,12.17
2023-03-10T22:34:49.429Z,12.10
2023-03-10T22:37:20.913Z,11.95
2023-03-10T22:39:51.471Z,11.81
2023-03-10T22:42:21.172Z,11.68
2023-03-10T22:44:51.890Z,11.65
2023-03-10T22:47:21.653Z,11.63
2023-03-10T22:49:51.888Z,11.68
2023-03-10T22:52:21.727Z,11.79
2023-03-10T22:54:51.666Z,11.86
2023-03-10T22:57:21.228Z,11.88
2023-03-10T22:59:51.538Z,11.89
2023-03-10T23:02:21.522Z,11.88
2023-03-10T23:04:51.560Z,11.84
2023-03-10T23:07:21.871Z,11.75
2023-03-10T23:09:52.468Z,11.71
2023-03-10T23:12:21.858Z,11.72
2023-03-10T23:14:52.983Z,11.74
2023-03-10T23:17:25.274Z,11.75
2023-03-10T23:19:56.887Z,11.73
2023-03-10T23:22:28.359Z,11.72
2023-03-10T23:24:58.365Z,11.73
2023-03-10T23:27:27.878Z,11.78
2023-03-10T23:29:58.492Z,11.84
2023-03-10T23:32:29.069Z,11.89
2023-03-10T23:35:00.214Z,11.97
2023-03-10T23:37:31.204Z,12.02
2023-03-10T23:40:01.916Z,12.01
2023-03-10T23:42:31.520Z,12.02
2023-03-10T23:45:01.229Z,12.04
2023-03-10T23:47:31.520Z,12.03
2023-03-10T23:50:00.992Z,11.99
2023-03-10T23:52:31.314Z,12.00
2023-03-10T23:55:01.150Z,12.00
2023-03-10T23:57:30.986Z,12.01
